Time;durP1;ratioP1;P1;durP2;ratioP2;P2;SDS_P1;SDS_P2;PMS_P1;PMS_P2;Temp;Humidity;BMP_temperature;BMP_pressure;BME280_temperature;BME280_humidity;BME280_pressure;Samples;Min_cycle;Max_cycle;Signal;HPM_P1;HPM_P2
2023/05/17 00:01:22;;;;;;;4.30;3.40;;;7.20;99.90;;;;;;5073833;28;20386;-81
2023/05/17 00:03:48;;;;;;;5.33;4.13;;;7.30;99.90;;;;;;5098914;28;20408;-80
2023/05/17 00:06:13;;;;;;;5.30;3.70;;;7.30;99.90;;;;;;5091609;28;20449;-80
2023/05/17 00:08:39;;;;;;;6.82;3.60;;;7.30;99.90;;;;;;5092184;28;20397;-80
2023/05/17 00:11:04;;;;;;;5.18;3.50;;;7.20;99.90;;;;;;5092132;28;20412;-81
2023/05/17 00:13:30;;;;;;;5.28;3.35;;;7.30;99.90;;;;;;5095181;28;20417;-80
2023/05/17 00:15:55;;;;;;;4.00;3.60;;;7.30;99.90;;;;;;5112285;28;20384;-81
2023/05/17 00:18:21;;;;;;;5.13;3.73;;;7.20;99.90;;;;;;5111487;28;20380;-80
2023/05/17 00:20:46;;;;;;;3.80;3.30;;;7.30;99.90;;;;;;5113025;28;20376;-81
2023/05/17 00:23:12;;;;;;;4.70;3.60;;;7.20;99.90;;;;;;5112291;28;20372;-80
2023/05/17 00:25:37;;;;;;;5.23;3.20;;;7.10;99.90;;;;;;5111419;28;20377;-81
2023/05/17 00:28:03;;;;;;;5.32;3.53;;;7.20;99.90;;;;;;5092865;28;20398;-81
2023/05/17 00:30:29;;;;;;;5.30;3.70;;;7.10;99.90;;;;;;5091637;28;20385;-81
2023/05/17 00:32:54;;;;;;;6.55;3.22;;;7.20;99.90;;;;;;5110833;28;20388;-80
2023/05/17 00:35:20;;;;;;;5.20;3.60;;;7.10;99.90;;;;;;5093907;28;20377;-80
2023/05/17 00:37:46;;;;;;;4.97;3.42;;;7.10;99.90;;;;;;5092744;28;20467;-80
2023/05/17 00:40:14;;;;;;;4.17;3.33;;;7.10;99.90;;;;;;5093410;28;20795;-80
2023/05/17 00:42:40;;;;;;;7.13;3.87;;;7.10;99.90;;;;;;5076888;28;20417;-80
2023/05/17 00:45:06;;;;;;;5.10;3.50;;;7.00;99.90;;;;;;5091242;28;20409;-79
2023/05/17 00:47:31;;;;;;;5.20;3.33;;;7.00;99.90;;;;;;5109148;28;20433;-80
2023/05/17 00:49:57;;;;;;;6.38;3.60;;;6.80;99.90;;;;;;5115563;28;20419;-80
2023/05/17 00:52:23;;;;;;;3.95;3.38;;;6.80;99.90;;;;;;5116364;28;20380;-80
2023/05/17 00:54:50;;;;;;;3.70;3.40;;;6.70;99.90;;;;;;5116482;28;20506;-80
2023/05/17 00:57:16;;;;;;;5.90;3.60;;;6.70;99.90;;;;;;5106806;28;20818;-80
2023/05/17 00:59:43;;;;;;;6.17;3.67;;;6.70;99.90;;;;;;5108012;28;20388;-80
2023/05/17 01:02:10;;;;;;;7.13;3.75;;;6.70;99.90;;;;;;5121751;28;20409;-80
2023/05/17 01:04:37;;;;;;;6.22;3.65;;;6.80;99.90;;;;;;5127257;28;20394;-80
2023/05/17 01:07:03;;;;;;;5.95;3.60;;;6.70;99.90;;;;;;5110689;28;20393;-80
2023/05/17 01:09:29;;;;;;;5.80;3.20;;;6.70;99.90;;;;;;5113527;28;20406;-80
2023/05/17 01:12:18;;;;;;;5.60;3.50;;;6.70;99.90;;;;;;5112678;28;20393;-80
2023/05/17 01:15:13;;;;;;;7.20;3.73;;;6.60;99.90;;;;;;5097597;28;20382;-80
2023/05/17 01:17:48;;;;;;;9.82;3.65;;;6.60;99.90;;;;;;5060038;28;20400;-80
2023/05/17 01:20:21;;;;;;;5.45;3.60;;;6.50;99.90;;;;;;5075574;28;20722;-81
2023/05/17 01:23:40;;;;;;;6.57;3.60;;;6.50;99.90;;;;;;5074974;28;20388;-81
2023/05/17 01:26:34;;;;;;;5.57;3.30;;;6.60;99.90;;;;;;4996210;28;20396;-81
2023/05/17 01:29:01;;;;;;;4.32;3.22;;;6.70;99.90;;;;;;4998695;28;20406;-80
2023/05/17 01:31:27;;;;;;;4.95;3.20;;;6.80;99.90;;;;;;5073113;28;20433;-81
2023/05/17 01:33:52;;;;;;;4.75;2.80;;;6.80;99.90;;;;;;5096720;28;20389;-80
2023/05/17 01:36:19;;;;;;;5.50;2.90;;;6.70;99.90;;;;;;5076041;28;20382;-80
2023/05/17 01:38:44;;;;;;;4.88;3.50;;;6.70;99.90;;;;;;5095426;28;20866;-80
2023/05/17 01:41:33;;;;;;;3.57;2.80;;;6.70;99.90;;;;;;5076193;28;20481;-80
2023/05/17 01:44:05;;;;;;;5.43;3.00;;;6.70;99.90;;;;;;5094609;28;20386;-80
2023/05/17 01:46:37;;;;;;;4.07;3.20;;;6.70;99.90;;;;;;5079806;28;20471;-80
2023/05/17 01:49:28;;;;;;;3.97;2.80;;;6.70;99.90;;;;;;5115058;28;20471;-80
2023/05/17 01:52:06;;;;;;;5.40;3.00;;;6.60;99.90;;;;;;5096723;28;20376;-80
2023/05/17 01:54:42;;;;;;;3.95;3.30;;;6.60;99.90;;;;;;5096240;28;20376;-80
2023/05/17 01:57:10;;;;;;;3.70;3.08;;;6.60;99.90;;;;;;5113161;28;20406;-80
2023/05/17 01:59:37;;;;;;;7.30;3.40;;;6.60;99.90;;;;;;5097310;28;20413;-81
2023/05/17 02:02:07;;;;;;;5.30;3.00;;;6.60;99.90;;;;;;5093675;28;20385;-81
2023/05/17 02:04:34;;;;;;;3.10;2.80;;;6.60;99.90;;;;;;5094366;28;20409;-80
2023/05/17 02:06:59;;;;;;;5.15;3.28;;;6.70;99.90;;;;;;5075775;28;20393;-81
2023/05/17 02:09:25;;;;;;;4.30;3.23;;;6.70;99.90;;;;;;5075969;28;20772;-80
2023/05/17 02:11:50;;;;;;;4.20;2.88;;;6.70;99.90;;;;;;5097491;28;20398;-80
2023/05/17 02:14:16;;;;;;;5.55;3.50;;;6.50;99.90;;;;;;5095348;28;20385;-81
2023/05/17 02:16:41;;;;;;;6.77;3.73;;;6.50;99.90;;;;;;5076387;28;20392;-81
2023/05/17 02:19:07;;;;;;;6.37;3.70;;;6.40;99.90;;;;;;5094519;28;20382;-81
2023/05/17 02:21:34;;;;;;;5.70;4.00;;;6.50;99.90;;;;;;5094531;28;20425;-80
2023/05/17 02:23:59;;;;;;;6.10;4.10;;;6.30;99.90;;;;;;5094156;28;20519;-81
2023/05/17 02:26:25;;;;;;;6.07;4.17;;;6.40;99.90;;;;;;5102134;28;20388;-80
2023/05/17 02:28:50;;;;;;;7.00;4.67;;;6.40;99.90;;;;;;5114229;28;20499;-79
2023/05/17 02:31:16;;;;;;;8.67;4.60;;;6.40;99.90;;;;;;5076737;28;20443;-80
2023/05/17 02:33:41;;;;;;;11.37;4.87;;;6.40;99.90;;;;;;5076875;28;20382;-80
2023/05/17 02:36:07;;;;;;;8.05;4.43;;;6.40;99.90;;;;;;5100452;28;20741;-81
2023/05/17 02:38:33;;;;;;;10.52;5.28;;;6.30;99.90;;;;;;5094020;28;20468;-80
2023/05/17 02:40:58;;;;;;;6.35;4.40;;;6.30;99.90;;;;;;5093927;28;20405;-80
2023/05/17 02:43:23;;;;;;;10.77;5.00;;;6.30;99.90;;;;;;5093311;28;20382;-80
2023/05/17 02:45:49;;;;;;;8.90;4.90;;;6.30;99.90;;;;;;5074614;28;20461;-80
2023/05/17 02:48:15;;;;;;;7.90;4.60;;;6.30;99.90;;;;;;5075036;28;20489;-80
2023/05/17 02:50:40;;;;;;;7.50;3.73;;;6.40;99.90;;;;;;5079906;28;20404;-80
2023/05/17 02:53:06;;;;;;;7.30;3.80;;;6.40;99.90;;;;;;5096288;28;20449;-80
2023/05/17 02:55:31;;;;;;;5.10;3.90;;;6.40;99.90;;;;;;5101259;28;20452;-80
2023/05/17 02:57:57;;;;;;;10.23;4.07;;;6.30;99.90;;;;;;5114380;28;20435;-80
2023/05/17 03:00:23;;;;;;;4.72;3.20;;;6.20;99.90;;;;;;5112542;28;20495;-80
2023/05/17 03:02:49;;;;;;;5.03;3.37;;;6.30;99.90;;;;;;5102740;28;20526;-80
2023/05/17 03:05:15;;;;;;;6.00;3.67;;;6.30;99.90;;;;;;5094385;28;20389;-80
2023/05/17 03:07:40;;;;;;;4.45;3.28;;;6.30;99.90;;;;;;5096478;28;20469;-80
2023/05/17 03:10:06;;;;;;;7.10;3.00;;;6.20;99.90;;;;;;5110958;28;20453;-80
2023/05/17 03:12:32;;;;;;;5.10;2.70;;;6.30;99.90;;;;;;5113445;28;20376;-80
2023/05/17 03:14:57;;;;;;;3.10;2.50;;;6.30;99.90;;;;;;5113629;28;20931;-80
2023/05/17 03:17:23;;;;;;;4.57;2.40;;;6.20;99.90;;;;;;5112693;28;20380;-80
2023/05/17 03:19:48;;;;;;;5.40;2.50;;;6.30;99.90;;;;;;5094199;28;20916;-80
2023/05/17 03:22:14;;;;;;;3.63;2.10;;;6.40;99.90;;;;;;5074757;28;20386;-80
2023/05/17 03:24:39;;;;;;;3.72;2.38;;;6.20;99.90;;;;;;5072185;28;20386;-80
2023/05/17 03:27:05;;;;;;;6.03;2.58;;;6.30;99.90;;;;;;5091971;28;20394;-80
2023/05/17 03:29:31;;;;;;;3.30;2.70;;;6.30;99.90;;;;;;5076568;28;20401;-80
2023/05/17 03:31:56;;;;;;;5.77;2.53;;;6.40;99.90;;;;;;5074738;28;20386;-80
2023/05/17 03:34:22;;;;;;;4.10;2.20;;;6.30;99.90;;;;;;5092289;28;20370;-80
2023/05/17 03:36:47;;;;;;;3.30;2.40;;;6.30;99.90;;;;;;5073435;28;20420;-80
2023/05/17 03:39:12;;;;;;;3.70;2.60;;;6.50;99.90;;;;;;5074166;28;20898;-80
2023/05/17 03:41:38;;;;;;;2.47;2.28;;;6.60;99.90;;;;;;5091710;28;20393;-80
2023/05/17 03:44:04;;;;;;;5.22;2.40;;;6.30;99.90;;;;;;5094252;28;20831;-81
2023/05/17 03:46:29;;;;;;;4.88;2.50;;;6.20;99.90;;;;;;5091238;28;20729;-80
2023/05/17 03:48:55;;;;;;;4.32;2.50;;;6.20;99.90;;;;;;5100286;28;20433;-79
2023/05/17 03:51:20;;;;;;;4.33;2.30;;;6.10;99.90;;;;;;5123816;28;20467;-80
2023/05/17 03:53:46;;;;;;;4.53;2.67;;;6.00;99.90;;;;;;5097302;28;20386;-79
2023/05/17 03:56:12;;;;;;;5.23;3.17;;;6.10;99.90;;;;;;5121361;28;20451;-80
2023/05/17 03:58:37;;;;;;;3.70;2.40;;;6.10;99.90;;;;;;5112585;28;20795;-80
2023/05/17 04:01:03;;;;;;;2.50;2.30;;;6.00;99.90;;;;;;5101315;28;20382;-80
2023/05/17 04:03:29;;;;;;;3.38;2.35;;;6.10;99.90;;;;;;5076217;28;20404;-81
2023/05/17 04:06:05;;;;;;;5.30;2.57;;;6.10;99.90;;;;;;5074341;28;20571;-80
2023/05/17 04:08:32;;;;;;;5.85;2.55;;;5.90;99.90;;;;;;5086759;28;20412;-80
2023/05/17 04:10:57;;;;;;;5.88;2.90;;;6.00;99.90;;;;;;5097226;28;20465;-80
2023/05/17 04:13:23;;;;;;;4.33;2.43;;;6.00;99.90;;;;;;5111931;28;20545;-80
2023/05/17 04:15:48;;;;;;;2.80;2.37;;;6.00;99.90;;;;;;5105705;28;20386;-81
2023/05/17 04:18:14;;;;;;;3.63;2.60;;;6.00;99.90;;;;;;5090405;28;20425;-81
2023/05/17 04:20:39;;;;;;;3.45;2.30;;;6.00;99.90;;;;;;5102174;28;20443;-81
2023/05/17 04:23:05;;;;;;;4.82;2.60;;;6.00;99.90;;;;;;5076057;28;20413;-81
2023/05/17 04:25:30;;;;;;;3.60;2.45;;;6.10;99.90;;;;;;5095718;28;20386;-81
2023/05/17 04:27:56;;;;;;;6.60;2.38;;;6.10;99.90;;;;;;5079356;28;20405;-81
2023/05/17 04:30:23;;;;;;;4.53;2.30;;;6.30;99.90;;;;;;5079276;28;20765;-81
2023/05/17 04:32:49;;;;;;;3.38;2.45;;;6.20;99.90;;;;;;5077580;28;20808;-80
2023/05/17 04:35:14;;;;;;;4.63;2.70;;;6.30;99.90;;;;;;5076849;28;20389;-81
2023/05/17 04:37:40;;;;;;;2.40;2.20;;;6.30;99.90;;;;;;5077844;28;20386;-80
2023/05/17 04:40:06;;;;;;;3.30;2.60;;;6.50;99.90;;;;;;5109553;28;20388;-80
2023/05/17 04:42:32;;;;;;;5.03;2.47;;;6.30;99.90;;;;;;5098523;28;20453;-81
2023/05/17 04:44:57;;;;;;;2.97;2.10;;;6.30;99.90;;;;;;5096190;28;20410;-80
2023/05/17 04:47:23;;;;;;;4.80;2.97;;;6.40;99.90;;;;;;5077836;28;20389;-80
2023/05/17 04:49:50;;;;;;;3.72;2.17;;;6.50;99.90;;;;;;5096620;28;20768;-79
2023/05/17 04:52:16;;;;;;;3.70;2.42;;;6.60;99.90;;;;;;5096393;28;20382;-79
2023/05/17 04:54:41;;;;;;;3.55;2.33;;;6.70;99.90;;;;;;5097559;28;20449;-79
2023/05/17 04:57:07;;;;;;;4.10;2.45;;;6.60;99.90;;;;;;5095533;28;20382;-80
2023/05/17 04:59:32;;;;;;;2.63;2.30;;;6.60;99.90;;;;;;5107183;28;20402;-78
2023/05/17 05:01:57;;;;;;;3.47;2.80;;;6.60;99.90;;;;;;5116981;28;20384;-80
2023/05/17 05:04:24;;;;;;;4.80;2.50;;;6.60;99.90;;;;;;5114706;28;20452;-79
2023/05/17 05:06:50;;;;;;;5.38;2.90;;;6.70;99.90;;;;;;5076960;28;20457;-80
2023/05/17 05:09:16;;;;;;;3.20;2.63;;;6.80;99.90;;;;;;5095577;28;20431;-80
2023/05/17 05:11:41;;;;;;;4.18;2.50;;;6.80;99.90;;;;;;5095668;28;20395;-81
2023/05/17 05:14:07;;;;;;;5.60;2.90;;;6.80;99.90;;;;;;5100659;28;20727;-80
2023/05/17 05:16:32;;;;;;;4.53;2.50;;;6.80;99.90;;;;;;5115413;28;20927;-80
2023/05/17 05:18:58;;;;;;;4.60;2.60;;;6.80;99.90;;;;;;5098102;28;20414;-80
2023/05/17 05:21:23;;;;;;;3.87;2.37;;;6.80;99.90;;;;;;5116066;28;20387;-80
2023/05/17 05:23:49;;;;;;;4.90;3.27;;;6.90;99.90;;;;;;5097178;28;20502;-80
2023/05/17 05:26:14;;;;;;;3.35;2.70;;;6.90;99.90;;;;;;5116488;28;20384;-80
2023/05/17 05:28:40;;;;;;;2.90;2.60;;;6.90;99.90;;;;;;5129554;28;20404;-79
2023/05/17 05:31:05;;;;;;;4.50;3.20;;;7.00;99.90;;;;;;5090745;28;20384;-80
2023/05/17 05:33:31;;;;;;;6.70;4.17;;;7.10;99.90;;;;;;5104243;28;20431;-80
2023/05/17 05:35:56;;;;;;;4.47;3.90;;;7.10;99.90;;;;;;5103949;28;20388;-80
2023/05/17 05:38:22;;;;;;;4.80;2.20;;;7.20;99.90;;;;;;5101891;28;20425;-80
2023/05/17 05:40:48;;;;;;;5.40;2.60;;;7.30;99.90;;;;;;5117105;28;20369;-80
2023/05/17 05:43:14;;;;;;;4.30;2.25;;;7.20;99.90;;;;;;5116660;28;20920;-80
2023/05/17 05:45:44;;;;;;;3.17;2.30;;;7.20;99.90;;;;;;5115149;28;20388;-81
2023/05/17 05:48:10;;;;;;;4.05;2.10;;;7.40;99.90;;;;;;5096776;28;20456;-80
2023/05/17 05:50:36;;;;;;;2.90;2.53;;;7.50;99.90;;;;;;5086861;28;20388;-80
2023/05/17 05:53:02;;;;;;;2.80;2.00;;;7.70;99.90;;;;;;5115859;28;20376;-81
2023/05/17 05:55:27;;;;;;;6.33;2.40;;;7.70;99.90;;;;;;5115268;28;20381;-80
2023/05/17 05:57:53;;;;;;;3.38;2.10;;;7.70;99.90;;;;;;5097292;28;20845;-80
2023/05/17 06:00:19;;;;;;;3.30;2.20;;;7.90;99.90;;;;;;5097002;28;20380;-80
2023/05/17 06:02:44;;;;;;;2.85;1.98;;;8.00;99.90;;;;;;5097410;28;20380;-80
2023/05/17 06:05:10;;;;;;;3.47;2.07;;;8.00;99.90;;;;;;5092788;28;20773;-80
2023/05/17 06:07:35;;;;;;;3.57;2.07;;;8.10;99.90;;;;;;5115344;28;20415;-81
2023/05/17 06:10:01;;;;;;;3.50;2.20;;;8.30;99.90;;;;;;5098351;28;20908;-81
2023/05/17 06:12:26;;;;;;;2.00;1.70;;;8.40;99.90;;;;;;5115429;28;20419;-80
2023/05/17 06:14:52;;;;;;;2.90;1.73;;;8.50;99.90;;;;;;5114699;28;20495;-80
2023/05/17 06:17:17;;;;;;;2.83;1.60;;;8.70;99.90;;;;;;5115240;28;20392;-80
2023/05/17 06:19:43;;;;;;;4.70;1.50;;;8.90;99.90;;;;;;5116042;28;20372;-80
2023/05/17 06:22:08;;;;;;;3.77;1.50;;;9.00;99.90;;;;;;5113079;28;20403;-80
2023/05/17 06:24:34;;;;;;;3.20;1.40;;;9.20;99.90;;;;;;5095542;28;20937;-81
2023/05/17 06:26:59;;;;;;;2.40;1.50;;;9.20;99.90;;;;;;5074855;28;20481;-81
2023/05/17 06:29:24;;;;;;;1.83;1.40;;;9.30;99.90;;;;;;5094684;28;20745;-81
2023/05/17 06:31:50;;;;;;;3.50;1.50;;;9.30;99.90;;;;;;5090916;28;20396;-80
2023/05/17 06:34:15;;;;;;;2.03;1.30;;;9.40;99.90;;;;;;5089656;28;20381;-80
2023/05/17 06:36:41;;;;;;;4.10;1.60;;;9.50;99.90;;;;;;5076011;28;20815;-80
2023/05/17 06:39:07;;;;;;;2.87;1.20;;;9.50;99.90;;;;;;5094331;28;20393;-80
2023/05/17 06:41:33;;;;;;;3.78;1.80;;;9.60;99.90;;;;;;5094194;28;20390;-81
2023/05/17 06:43:59;;;;;;;3.03;1.60;;;9.60;99.90;;;;;;5094015;28;20694;-81
2023/05/17 06:46:25;;;;;;;2.43;1.47;;;9.60;99.90;;;;;;5092419;28;20389;-80
2023/05/17 06:48:50;;;;;;;2.10;1.30;;;9.70;99.90;;;;;;5093441;28;20394;-80
2023/05/17 06:51:15;;;;;;;3.47;1.50;;;9.80;99.90;;;;;;5088005;28;20378;-80
2023/05/17 06:53:41;;;;;;;2.03;1.40;;;9.90;99.70;;;;;;5093389;28;20381;-80
2023/05/17 06:56:06;;;;;;;2.93;1.40;;;10.00;99.90;;;;;;5092798;28;20379;-80
2023/05/17 06:58:34;;;;;;;3.03;1.50;;;10.00;99.90;;;;;;5091477;28;20380;-80
2023/05/17 07:00:59;;;;;;;2.00;1.30;;;10.00;99.90;;;;;;5093260;28;20394;-78
2023/05/17 07:03:25;;;;;;;2.17;1.40;;;10.10;99.90;;;;;;5092696;28;20906;-81
2023/05/17 07:05:50;;;;;;;2.60;1.40;;;10.20;99.90;;;;;;5074339;28;20393;-81
2023/05/17 07:08:16;;;;;;;3.57;1.50;;;10.20;86.60;;;;;;5078800;28;20480;-81
2023/05/17 07:10:41;;;;;;;2.50;1.48;;;10.30;99.90;;;;;;5095471;28;20370;-81
2023/05/17 07:13:07;;;;;;;3.20;1.23;;;10.50;72.70;;;;;;5094892;28;20439;-81
2023/05/17 07:15:32;;;;;;;2.57;1.33;;;10.50;84.40;;;;;;5093163;28;20389;-79
2023/05/17 07:17:58;;;;;;;4.90;1.90;;;10.50;77.30;;;;;;5081584;28;20776;-79
2023/05/17 07:20:23;;;;;;;2.50;1.60;;;10.40;99.90;;;;;;5094463;28;20482;-82
2023/05/17 07:22:49;;;;;;;3.47;1.40;;;10.50;99.90;;;;;;5096646;28;20417;-79
2023/05/17 07:25:16;;;;;;;3.23;1.40;;;10.60;99.90;;;;;;5114954;28;20384;-81
2023/05/17 07:27:42;;;;;;;2.80;1.00;;;10.60;51.80;;;;;;5095837;28;20384;-81
2023/05/17 07:30:08;;;;;;;4.37;1.83;;;10.70;71.10;;;;;;5095688;28;20435;-82
2023/05/17 07:32:33;;;;;;;3.20;1.35;;;10.80;91.10;;;;;;5096423;28;20816;-81
2023/05/17 07:35:01;;;;;;;4.28;1.67;;;10.90;96.90;;;;;;5095740;28;20913;-81
2023/05/17 07:37:26;;;;;;;2.03;1.50;;;10.90;11.10;;;;;;5113136;28;20392;-81
2023/05/17 07:39:51;;;;;;;3.10;1.40;;;10.90;41.20;;;;;;5114287;28;20922;-81
2023/05/17 07:42:17;;;;;;;2.70;1.60;;;10.80;65.80;;;;;;5096478;28;20380;-81
2023/05/17 07:44:42;;;;;;;3.77;1.40;;;11.10;15.90;;;;;;5114446;28;20407;-81
2023/05/17 07:47:08;;;;;;;2.60;1.20;;;11.20;20.60;;;;;;5099419;28;20398;-81
2023/05/17 07:49:33;;;;;;;4.10;1.40;;;11.20;12.80;;;;;;5110056;28;20411;-81
2023/05/17 07:52:01;;;;;;;3.28;1.48;;;11.30;5.70;;;;;;5103758;28;20380;-80
2023/05/17 07:54:26;;;;;;;3.45;1.55;;;11.10;36.90;;;;;;5102744;28;20466;-81
2023/05/17 07:56:53;;;;;;;2.85;1.75;;;11.20;17.50;;;;;;5113460;28;20831;-81
2023/05/17 07:59:22;;;;;;;3.53;1.67;;;11.30;1.70;;;;;;5095170;28;20452;-81
2023/05/17 08:01:48;;;;;;;2.17;1.47;;;11.40;11.70;;;;;;5114703;28;20781;-81
2023/05/17 08:04:13;;;;;;;3.20;1.60;;;11.50;3.00;;;;;;5110719;28;20439;-81
2023/05/17 08:06:41;;;;;;;2.43;1.33;;;11.50;1.00;;;;;;5099099;28;20773;-81
2023/05/17 08:09:06;;;;;;;2.67;1.70;;;11.50;1.00;;;;;;5089472;28;20396;-81
2023/05/17 08:11:33;;;;;;;3.07;1.23;;;11.50;1.10;;;;;;5095511;28;20386;-82
2023/05/17 08:14:02;;;;;;;3.67;1.80;;;11.40;1.00;;;;;;5080431;28;20378;-81
2023/05/17 08:16:27;;;;;;;4.65;1.50;;;11.60;1.00;;;;;;5099697;28;20474;-81
2023/05/17 08:18:53;;;;;;;5.27;1.80;;;11.60;1.00;;;;;;5107273;28;20389;-80
2023/05/17 08:21:19;;;;;;;3.70;1.65;;;11.50;2.60;;;;;;5114389;28;20396;-80
2023/05/17 08:23:45;;;;;;;3.35;1.70;;;11.50;1.00;;;;;;5112938;28;20421;-79
2023/05/17 08:26:11;;;;;;;2.50;1.50;;;11.60;1.00;;;;;;5083897;28;20386;-79
2023/05/17 08:28:37;;;;;;;2.40;1.60;;;11.60;1.00;;;;;;5082473;28;20413;-79
2023/05/17 08:31:03;;;;;;;2.33;1.60;;;11.50;1.00;;;;;;5084416;28;20381;-80
2023/05/17 08:33:28;;;;;;;3.53;1.70;;;11.40;10.70;;;;;;5116196;28;20384;-79
2023/05/17 08:35:56;;;;;;;3.20;1.60;;;11.60;1.00;;;;;;5123092;28;20380;-79
2023/05/17 08:38:22;;;;;;;2.20;1.50;;;11.80;1.00;;;;;;5118209;28;20401;-79
2023/05/17 08:40:58;;;;;;;4.40;1.90;;;11.80;1.00;;;;;;5101899;28;20760;-79
2023/05/17 08:43:24;;;;;;;2.28;1.42;;;11.80;1.00;;;;;;5083048;28;20408;-79
2023/05/17 08:45:51;;;;;;;2.40;1.45;;;11.90;1.00;;;;;;5102016;28;20443;-79
2023/05/17 08:48:18;;;;;;;3.90;2.03;;;11.70;1.00;;;;;;5083324;28;20394;-79
2023/05/17 08:50:46;;;;;;;3.50;1.40;;;11.50;1.00;;;;;;5098667;28;20443;-79
2023/05/17 08:53:12;;;;;;;3.00;1.70;;;11.60;1.00;;;;;;5103462;28;20447;-79
2023/05/17 08:55:44;;;;;;;3.35;1.80;;;11.60;1.30;;;;;;5083339;28;20385;-80
2023/05/17 08:58:10;;;;;;;2.35;1.60;;;11.90;1.00;;;;;;5082421;28;20394;-79
2023/05/17 09:00:36;;;;;;;2.70;1.80;;;12.10;1.00;;;;;;5102314;28;20406;-79
2023/05/17 09:03:02;;;;;;;3.50;1.60;;;12.40;1.00;;;;;;5103128;28;20768;-79
2023/05/17 09:05:28;;;;;;;2.50;1.80;;;12.30;1.00;;;;;;5105218;28;20470;-79
2023/05/17 09:07:54;;;;;;;3.70;1.80;;;12.60;1.00;;;;;;5105267;28;20397;-80
2023/05/17 09:10:20;;;;;;;2.58;1.70;;;12.50;1.00;;;;;;5105722;28;20370;-80
2023/05/17 09:12:46;;;;;;;2.60;1.70;;;12.50;1.00;;;;;;5108482;28;20378;-79
2023/05/17 09:15:17;;;;;;;3.08;1.90;;;12.60;1.00;;;;;;5108913;28;20378;-80
2023/05/17 09:17:51;;;;;;;3.72;2.10;;;12.80;1.00;;;;;;5117575;28;20733;-80
2023/05/17 09:20:33;;;;;;;3.83;2.88;;;12.50;1.00;;;;;;5089915;28;20405;-79
2023/05/17 09:22:59;;;;;;;2.90;1.80;;;12.40;1.00;;;;;;5108760;28;20409;-81
2023/05/17 09:25:25;;;;;;;2.33;1.90;;;12.40;1.00;;;;;;5092789;28;20405;-80
2023/05/17 09:27:59;;;;;;;2.80;1.77;;;12.30;1.00;;;;;;5125379;28;20380;-80
2023/05/17 09:30:29;;;;;;;2.92;1.50;;;12.50;1.00;;;;;;5107716;28;20388;-80
2023/05/17 09:32:56;;;;;;;2.53;1.70;;;12.40;1.00;;;;;;5122928;28;20364;-80
2023/05/17 09:35:31;;;;;;;5.10;2.03;;;12.60;1.00;;;;;;5105316;28;20377;-80
2023/05/17 09:38:11;;;;;;;3.40;1.80;;;12.80;1.00;;;;;;5125213;28;20380;-80
2023/05/17 09:40:41;;;;;;;2.17;1.60;;;12.90;1.00;;;;;;5090887;28;20388;-80
2023/05/17 09:43:08;;;;;;;2.53;1.80;;;12.90;1.00;;;;;;5105085;28;21067;-80
2023/05/17 09:45:35;;;;;;;2.65;2.20;;;12.70;1.00;;;;;;5087279;28;20785;-80
2023/05/17 09:48:13;;;;;;;2.40;1.70;;;12.70;1.00;;;;;;5090418;28;20478;-80
2023/05/17 09:50:57;;;;;;;1.90;1.60;;;12.90;1.00;;;;;;5093375;28;20386;-81
2023/05/17 09:53:29;;;;;;;4.20;2.00;;;13.00;1.00;;;;;;5127631;28;20377;-80
2023/05/17 09:55:59;;;;;;;4.55;2.10;;;13.20;1.00;;;;;;5126968;28;20380;-80
2023/05/17 09:58:27;;;;;;;2.38;1.90;;;13.30;1.00;;;;;;5126412;28;20373;-79
2023/05/17 10:00:57;;;;;;;2.70;1.77;;;13.30;1.00;;;;;;5110668;28;20417;-80
2023/05/17 10:03:35;;;;;;;2.40;1.70;;;13.00;1.00;;;;;;5112145;22;20422;-78
2023/05/17 10:06:04;;;;;;;2.58;2.10;;;13.00;1.00;;;;;;5100096;28;20400;-78
2023/05/17 10:08:31;;;;;;;2.50;1.80;;;13.00;1.00;;;;;;5118797;28;20445;-77
2023/05/17 10:11:04;;;;;;;4.43;2.08;;;12.90;1.00;;;;;;5119165;28;20757;-78
2023/05/17 10:13:34;;;;;;;3.78;1.88;;;13.30;1.00;;;;;;5079690;28;20383;-79
2023/05/17 10:16:01;;;;;;;4.50;1.60;;;13.50;1.00;;;;;;5073731;28;20380;-78
2023/05/17 10:18:28;;;;;;;4.55;1.80;;;13.40;1.00;;;;;;5074083;28;20383;-79
2023/05/17 10:20:55;;;;;;;3.70;1.70;;;13.70;1.00;;;;;;5076170;28;20380;-79
2023/05/17 10:23:21;;;;;;;2.50;1.60;;;13.70;1.00;;;;;;5086806;28;20405;-78
2023/05/17 10:25:47;;;;;;;4.22;1.88;;;13.40;1.00;;;;;;5093132;28;20453;-79
2023/05/17 10:28:16;;;;;;;3.42;2.03;;;13.60;1.00;;;;;;5090195;28;20410;-79
2023/05/17 10:30:42;;;;;;;1.97;1.60;;;13.20;1.00;;;;;;5073587;28;20794;-78
2023/05/17 10:33:10;;;;;;;2.80;1.50;;;13.30;1.00;;;;;;5073434;28;20924;-78
2023/05/17 10:35:37;;;;;;;2.78;1.70;;;13.30;1.00;;;;;;5055497;28;20404;-80
2023/05/17 10:38:03;;;;;;;3.13;2.40;;;13.60;1.00;;;;;;5093614;28;20374;-78
2023/05/17 10:40:30;;;;;;;3.40;1.80;;;13.50;1.00;;;;;;5075276;28;20374;-78
2023/05/17 10:42:56;;;;;;;3.42;2.10;;;13.50;1.00;;;;;;5085491;28;20471;-78
2023/05/17 10:45:26;;;;;;;2.55;1.88;;;13.70;1.00;;;;;;5073102;28;20376;-79
2023/05/17 10:47:52;;;;;;;3.20;2.10;;;13.70;1.00;;;;;;5072840;28;20433;-79
2023/05/17 10:50:25;;;;;;;2.90;1.80;;;14.10;1.00;;;;;;5073791;28;20850;-79
2023/05/17 10:52:52;;;;;;;3.70;2.30;;;14.00;1.00;;;;;;5079711;28;20748;-78
2023/05/17 10:55:23;;;;;;;2.93;1.80;;;14.00;1.00;;;;;;5093835;28;20386;-78
2023/05/17 10:58:18;;;;;;;3.50;2.50;;;14.30;1.00;;;;;;5095697;28;20473;-78
2023/05/17 11:00:47;;;;;;;2.38;1.95;;;14.20;1.00;;;;;;5076550;28;20382;-79
2023/05/17 11:03:17;;;;;;;1.80;1.50;;;14.10;1.00;;;;;;5060031;28;20392;-78
2023/05/17 11:06:05;;;;;;;2.20;1.80;;;14.00;1.00;;;;;;5070602;28;20472;-78
2023/05/17 11:08:31;;;;;;;3.50;1.90;;;13.90;1.00;;;;;;5094485;28;20775;-79
2023/05/17 11:11:11;;;;;;;2.60;1.80;;;14.20;1.00;;;;;;5093859;28;20420;-79
2023/05/17 11:13:51;;;;;;;2.15;1.77;;;14.70;1.00;;;;;;5092202;28;20772;-78
2023/05/17 11:16:19;;;;;;;3.50;1.90;;;15.40;1.00;;;;;;5090961;28;20393;-78
2023/05/17 11:18:51;;;;;;;3.60;2.00;;;15.80;1.00;;;;;;5092654;28;20402;-78
2023/05/17 11:21:17;;;;;;;2.55;2.00;;;15.30;1.00;;;;;;5095234;28;20743;-78
2023/05/17 11:23:47;;;;;;;2.50;2.00;;;14.70;1.00;;;;;;5095774;28;20386;-77
2023/05/17 11:26:26;;;;;;;2.50;2.00;;;14.70;1.00;;;;;;5078091;28;20880;-78
2023/05/17 11:29:09;;;;;;;3.20;1.70;;;14.60;1.00;;;;;;5075873;28;20414;-79
2023/05/17 11:31:36;;;;;;;2.70;2.00;;;14.50;1.00;;;;;;5072185;28;20472;-78
2023/05/17 11:34:02;;;;;;;2.80;1.88;;;14.60;1.00;;;;;;5071428;28;20386;-78
2023/05/17 11:36:28;;;;;;;3.73;2.40;;;14.60;1.00;;;;;;5071895;28;20472;-78
2023/05/17 11:39:14;;;;;;;4.00;2.37;;;14.70;1.00;;;;;;5071744;28;20384;-79
2023/05/17 11:41:48;;;;;;;2.72;2.15;;;14.60;1.00;;;;;;5070572;28;20451;-79
2023/05/17 11:44:15;;;;;;;3.97;1.98;;;14.30;1.00;;;;;;5074194;28;20382;-80
2023/05/17 11:46:42;;;;;;;2.30;1.80;;;14.50;1.00;;;;;;5089283;28;20385;-79
2023/05/17 11:49:08;;;;;;;2.00;1.73;;;15.00;1.00;;;;;;5084468;28;20486;-79
2023/05/17 11:51:34;;;;;;;3.72;2.50;;;14.80;1.00;;;;;;5092689;28;20405;-79
2023/05/17 11:54:02;;;;;;;2.00;1.80;;;15.00;1.00;;;;;;5092425;28;20400;-79
2023/05/17 11:56:34;;;;;;;2.50;1.70;;;14.80;1.00;;;;;;5073671;28;20413;-79
2023/05/17 11:59:00;;;;;;;3.15;2.20;;;14.80;1.00;;;;;;5069813;28;20396;-79
2023/05/17 12:01:25;;;;;;;4.50;2.20;;;14.50;1.00;;;;;;5087787;28;20401;-79
2023/05/17 12:03:59;;;;;;;3.87;2.30;;;14.00;1.00;;;;;;5074130;28;20401;-79
2023/05/17 12:06:27;;;;;;;3.70;2.55;;;14.20;1.00;;;;;;5071286;28;20893;-79
2023/05/17 12:08:53;;;;;;;5.15;2.60;;;15.60;1.00;;;;;;5072460;28;20410;-80
2023/05/17 12:11:20;;;;;;;3.30;2.10;;;15.80;1.00;;;;;;5072172;28;20961;-78
2023/05/17 12:13:47;;;;;;;2.60;1.80;;;15.70;1.00;;;;;;5069884;28;20469;-79
2023/05/17 12:16:15;;;;;;;2.70;2.20;;;15.40;1.00;;;;;;5070248;28;20402;-78
2023/05/17 12:18:42;;;;;;;3.40;2.10;;;15.40;1.00;;;;;;5073491;28;20390;-78
2023/05/17 12:21:12;;;;;;;2.50;2.20;;;16.00;1.00;;;;;;5089521;28;20852;-78
2023/05/17 12:23:40;;;;;;;3.50;2.10;;;15.40;1.00;;;;;;5071132;28;20387;-78
2023/05/17 12:26:10;;;;;;;3.10;1.65;;;15.10;1.00;;;;;;5052818;28;20388;-77
2023/05/17 12:28:38;;;;;;;2.60;2.10;;;15.20;1.00;;;;;;5053507;28;20430;-78
2023/05/17 12:31:07;;;;;;;5.57;2.35;;;15.50;1.00;;;;;;5071245;28;20470;-79
2023/05/17 12:33:35;;;;;;;2.50;2.30;;;15.50;1.00;;;;;;5075136;28;20421;-78
2023/05/17 12:36:02;;;;;;;2.47;1.90;;;15.80;1.00;;;;;;5087488;28;20382;-78
2023/05/17 12:38:31;;;;;;;2.50;2.28;;;15.60;1.00;;;;;;5074032;28;20439;-78
2023/05/17 12:40:59;;;;;;;3.50;2.25;;;15.50;1.00;;;;;;5073056;28;20394;-79
2023/05/17 12:43:25;;;;;;;2.20;1.75;;;15.30;1.00;;;;;;5091126;28;20393;-78
2023/05/17 12:45:52;;;;;;;3.67;2.15;;;16.20;1.00;;;;;;5093057;28;20397;-78
2023/05/17 12:48:18;;;;;;;4.10;2.20;;;16.50;1.00;;;;;;5077435;28;20417;-78
2023/05/17 12:50:47;;;;;;;2.25;1.90;;;17.20;1.00;;;;;;5077953;28;20390;-78
2023/05/17 12:53:13;;;;;;;3.28;2.33;;;16.90;1.00;;;;;;5078055;28;20442;-78
2023/05/17 12:55:39;;;;;;;3.07;2.20;;;16.10;1.00;;;;;;5094475;28;20476;-78
2023/05/17 12:58:04;;;;;;;3.85;2.13;;;15.60;1.00;;;;;;5095873;28;20382;-79